高知空港の過去48時間の天気

高知空港 (Kochi)

現在時刻: 1/23 13:16 JST (1/23 04:16 UTC) 以下の時間は現地時間です。

過去48時間のMETAR気象情報
時間 風向 風速(m/s) 視程 気温(℃) 湿度(%) 気圧(hPa) 天気現象
23 13:00 西 7 10km以上 11 50 1012
23 12:00 西南西 7 10km以上 10 54 1012
23 11:00 西 6 10km以上 11 47 1012
23 10:00 北北西 2 10km以上 8 71 1013
23 09:00 2 10km以上 4 87 1013
23 08:00 北北西 4 10km以上 2 87 1013
23 07:00 4 10km以上 2 81 1013
23 06:10 4 10km以上 2 87 1013
22 20:00 4 10km以上 5 65 1011
22 19:00 6 10km以上 5 70 1010
22 18:00 7 10km以上 5 70 1010
22 17:00 6 10km以上 6 76 1009 弱いしゅう雨
22 16:00 北北西 4 10km以上 6 87 1009 弱いしゅう雨
22 15:31 北北西 4 10km以上 6 87 1009 しゅう雨
22 15:00 北北西 5 10km以上 6 87 1008 弱いしゅう雨
22 14:00 4 10km以上 5 87 1008 弱いしゅう雨
22 13:12 北北西 4 8,000m 5 87 1010 弱いしゅう雨
22 13:00 北北西 4 6,000m 5 87 1010 しゅう雨
22 12:00 4 6,000m 5 81 1011 しゅう雨
22 11:00 3 7,000m 5 81 1013 しゅう雨
22 10:00 5 8,000m 5 87 1014 しゅう雨
22 09:44 4 9,000m 5 81 1015 しゅう雨
22 09:00 北北西 5 10km以上 6 70 1014 弱い雨
22 08:00 北北西 5 10km以上 6 70 1014 弱い雨
22 07:00 北北西 4 10km以上 6 65 1014 弱い雨
22 06:10 北北西 4 10km以上 7 57 1014
RJOK 230400Z 27014KT 9999 FEW030 SCT040 11/01 Q1012
RJOK 230300Z 25013KT 9999 FEW030 BKN060 10/01 Q1012
RJOK 230200Z 26012KT 9999 FEW030 11/00 Q1012
RJOK 230100Z 33004KT 290V010 9999 FEW025 08/03 Q1013
RJOK 230000Z 36003KT 320V050 9999 FEW005 04/02 Q1013
RJOK 222300Z 34007KT 310V010 9999 FEW010 02/M00 Q1013
RJOK 222200Z 35007KT 9999 FEW010 SCT060 02/M01 Q1013
RJOK 222110Z 35007KT 9999 FEW002 SCT050 02/M00 Q1013 RMK 1ST002 3SC050 A2991
RJOK 221100Z 35008KT 9999 FEW007 05/M01 Q1011
RJOK 221000Z 35011KT 9999 FEW007 05/M00 Q1010
RJOK 220900Z 36013KT 9999 FEW005 SCT060 05/M00 Q1010
RJOK 220800Z 36011KT 9999 -SHRA FEW002 BKN035 BKN050 06/02 Q1009
RJOK 220700Z 34007KT 9999 -SHRA FEW002 SCT025 BKN040 06/04 Q1009
RJOK 220631Z 33008KT 9999 SHRA FEW002 SCT025 BKN040 06/04 Q1009 RMK 1ST002 3CU025 5CU040 A2980
RJOK 220600Z 33010KT 9999 -SHRA FEW002 SCT025 BKN035 06/04 Q1008
RJOK 220500Z 36007KT 9999 -SHRA FEW002 BKN035 BKN050 05/03 Q1008
RJOK 220412Z 34007KT 8000 -SHRA FEW002 SCT020 BKN025 05/03 Q1010 RMK 1ST002 3CU020 5CU025 A2982
RJOK 220400Z 34007KT 6000 SHRA FEW002 SCT020 BKN035 05/03 Q1010
RJOK 220300Z 36007KT 6000 SHRA FEW003 SCT015 BKN030 05/02 Q1011
RJOK 220200Z 01005KT 7000 SHRA FEW003 SCT015 BKN030 05/02 Q1013
RJOK 220100Z 01010KT 8000 SHRA FEW015 SCT020 BKN030 05/03 Q1014
RJOK 220044Z 35008KT 9000 SHRA FEW015 SCT020 BKN035 05/02 Q1015 RMK 1CU015 4CU020 6SC035 A2998
RJOK 220000Z 34010KT 9999 -RA FEW025 BKN040 06/01 Q1014
RJOK 212300Z 33009KT 9999 -RA FEW025 BKN050 06/01 Q1014
RJOK 212200Z 33007KT 9999 -RA FEW025 BKN050 BKN090 06/00 Q1014
RJOK 212110Z 34007KT 9999 FEW025 SCT080 BKN110 07/M01 Q1014 RMK 1CU025 4AC080 7AC110 A2995